Time,TemperatureF,DewpointF,PressureIn,WindDirection,WindDirectionDegrees,WindSpeedMPH,WindSpeedGustMPH,Humidity,HourlyPrecipIn,Conditions,Clouds,dailyrainin,SolarRadiationWatts/m^2,SoftwareType,DateUTC
2013-05-30 00:09:00,76.1,72.0,30.02,East,98,2.0,8.0,86,0.00,,,0.00,0,weatherlink.com 1.10,2013-05-30 04:09:00,
2013-05-30 00:24:00,75.9,72.0,30.01,East,93,3.0,8.0,87,0.00,,,0.00,0,weatherlink.com 1.10,2013-05-30 04:24:00,
2013-05-30 00:39:00,75.7,72.0,30.01,East,101,3.0,6.0,88,0.00,,,0.00,0,weatherlink.com 1.10,2013-05-30 04:39:00,
2013-05-30 00:54:00,75.6,72.0,30.00,ESE,106,1.0,5.0,89,0.00,,,0.00,0,weatherlink.com 1.10,2013-05-30 04:54:00,
2013-05-30 01:09:00,75.4,72.0,30.00,ENE,71,2.0,6.0,89,0.00,,,0.00,0,weatherlink.com 1.10,2013-05-30 05:09:00,
2013-05-30 01:24:00,75.2,72.0,29.99,ESE,113,1.0,6.0,89,0.00,,,0.00,0,weatherlink.com 1.10,2013-05-30 05:24:00,
2013-05-30 01:39:00,75.1,72.0,29.99,East,96,2.0,5.0,90,0.00,,,0.00,0,weatherlink.com 1.10,2013-05-30 05:39:00,
2013-05-30 02:05:00,-999.0,-99.9,0.00,North,-999,-999.0,-999.0,-999,0.00,,,0.00,,weatherlink.com 1.10,2013-05-30 06:05:00,
2013-05-30 02:18:00,-999.0,-99.9,29.99,North,-999,-999.0,-999.0,-999,0.00,,,0.00,,weatherlink.com 1.10,2013-05-30 06:18:00,
2013-05-30 02:33:00,74.7,72.0,29.99,ENE,78,0.0,4.0,90,0.00,,,0.00,0,weatherlink.com 1.10,2013-05-30 06:33:00,
2013-05-30 02:48:00,74.8,72.0,29.99,East,86,0.0,7.0,90,0.00,,,0.00,0,weatherlink.com 1.10,2013-05-30 06:48:00,
2013-05-30 03:03:00,74.6,72.0,29.98,East,98,0.0,5.0,90,0.00,,,0.00,0,weatherlink.com 1.10,2013-05-30 07:03:00,
2013-05-30 03:18:00,74.5,72.0,29.98,East,98,2.0,3.0,90,0.00,,,0.00,0,weatherlink.com 1.10,2013-05-30 07:18:00,
2013-05-30 03:33:00,74.2,72.0,29.99,East,98,1.0,2.0,91,0.00,,,0.00,0,weatherlink.com 1.10,2013-05-30 07:33:00,
2013-05-30 03:48:00,73.9,72.0,29.98,East,98,0.0,3.0,92,0.00,,,0.00,0,weatherlink.com 1.10,2013-05-30 07:48:00,
2013-05-30 04:04:00,74.0,72.0,29.98,East,98,0.0,1.0,92,0.00,,,0.00,0,weatherlink.com 1.10,2013-05-30 08:04:00,
2013-05-30 04:19:00,74.0,72.0,29.98,East,98,0.0,1.0,92,0.00,,,0.00,0,weatherlink.com 1.10,2013-05-30 08:19:00,
2013-05-30 04:34:00,74.0,72.0,29.99,East,98,1.0,1.0,92,0.00,,,0.00,0,weatherlink.com 1.10,2013-05-30 08:34:00,
2013-05-30 04:49:00,73.8,72.0,29.98,East,98,0.0,1.0,93,0.00,,,0.00,0,weatherlink.com 1.10,2013-05-30 08:49:00,
2013-05-30 05:04:00,73.8,72.0,29.98,East,98,0.0,1.0,93,0.00,,,0.00,0,weatherlink.com 1.10,2013-05-30 09:04:00,
2013-05-30 05:19:00,73.5,72.0,29.99,East,98,0.0,1.0,94,0.00,,,0.00,0,weatherlink.com 1.10,2013-05-30 09:19:00,
2013-05-30 05:34:00,73.7,72.0,30.00,East,98,0.0,3.0,93,0.00,,,0.00,0,weatherlink.com 1.10,2013-05-30 09:34:00,
2013-05-30 05:49:00,73.6,72.0,30.00,NE,46,0.0,3.0,93,0.00,,,0.00,5,weatherlink.com 1.10,2013-05-30 09:49:00,
2013-05-30 06:04:00,73.2,71.0,30.00,North,360,0.0,1.0,94,0.00,,,0.00,21,weatherlink.com 1.10,2013-05-30 10:04:00,
2013-05-30 06:19:00,73.0,72.0,30.00,ENE,67,0.0,1.0,95,0.00,,,0.00,47,weatherlink.com 1.10,2013-05-30 10:19:00,
2013-05-30 06:34:00,73.2,71.0,30.00,ENE,67,0.0,1.0,94,0.00,,,0.00,69,weatherlink.com 1.10,2013-05-30 10:34:00,
2013-05-30 06:49:00,74.5,72.0,30.00,ENE,67,0.0,1.0,92,0.00,,,0.00,130,weatherlink.com 1.10,2013-05-30 10:49:00,
2013-05-30 07:04:00,76.0,73.0,30.00,ENE,67,0.0,2.0,90,0.00,,,0.00,179,weatherlink.com 1.10,2013-05-30 11:04:00,
2013-05-30 07:19:00,77.1,73.0,30.00,ENE,58,0.0,7.0,86,0.00,,,0.00,214,weatherlink.com 1.10,2013-05-30 11:19:00,
2013-05-30 07:34:00,77.6,73.0,30.01,ESE,119,2.0,6.0,85,0.00,,,0.00,246,weatherlink.com 1.10,2013-05-30 11:34:00,
2013-05-30 07:49:00,78.2,73.0,30.01,ESE,109,0.0,5.0,84,0.00,,,0.00,334,weatherlink.com 1.10,2013-05-30 11:49:00,
2013-05-30 08:04:00,79.1,73.0,30.01,NE,45,1.0,7.0,82,0.00,,,0.00,406,weatherlink.com 1.10,2013-05-30 12:04:00,
2013-05-30 08:19:00,79.9,74.0,30.02,ENE,63,1.0,6.0,82,0.00,,,0.00,371,weatherlink.com 1.10,2013-05-30 12:19:00,
2013-05-30 08:34:00,79.1,74.0,30.02,East,87,0.0,12.0,83,0.00,,,0.00,308,weatherlink.com 1.10,2013-05-30 12:34:00,
2013-05-30 08:49:00,79.3,73.0,30.02,ENE,78,2.0,10.0,81,0.00,,,0.00,255,weatherlink.com 1.10,2013-05-30 12:49:00,
2013-05-30 09:04:00,80.0,74.0,30.03,East,86,1.0,8.0,81,0.00,,,0.00,585,weatherlink.com 1.10,2013-05-30 13:04:00,
2013-05-30 09:19:00,80.3,74.0,30.02,ENE,71,1.0,13.0,80,0.00,,,0.00,557,weatherlink.com 1.10,2013-05-30 13:19:00,
2013-05-30 09:34:00,81.4,75.0,30.03,SSW,197,1.0,9.0,80,0.00,,,0.00,708,weatherlink.com 1.10,2013-05-30 13:34:00,
2013-05-30 09:49:00,82.6,74.0,30.02,ESE,106,7.0,11.0,76,0.00,,,0.00,754,weatherlink.com 1.10,2013-05-30 13:49:00,
2013-05-30 10:04:00,82.5,73.0,30.02,SSE,163,6.0,13.0,74,0.00,,,0.00,863,weatherlink.com 1.10,2013-05-30 14:04:00,
2013-05-30 10:20:00,82.5,73.0,30.02,NE,46,5.0,15.0,73,0.00,,,0.00,842,weatherlink.com 1.10,2013-05-30 14:20:00,
2013-05-30 10:35:00,82.6,74.0,30.02,South,179,2.0,10.0,75,0.00,,,0.00,868,weatherlink.com 1.10,2013-05-30 14:35:00,
2013-05-30 10:50:00,83.5,74.0,30.03,SE,140,3.0,13.0,72,0.00,,,0.00,904,weatherlink.com 1.10,2013-05-30 14:50:00,
2013-05-30 11:05:00,83.2,74.0,30.02,East,86,3.0,13.0,74,0.00,,,0.00,297,weatherlink.com 1.10,2013-05-30 15:05:00,
2013-05-30 11:20:00,84.5,74.0,30.02,NE,55,3.0,10.0,71,0.00,,,0.00,492,weatherlink.com 1.10,2013-05-30 15:20:00,
2013-05-30 11:35:00,83.5,73.0,30.02,East,101,9.0,17.0,71,0.00,,,0.00,1060,weatherlink.com 1.10,2013-05-30 15:35:00,
2013-05-30 11:50:00,83.7,74.0,30.02,East,91,2.0,10.0,73,0.00,,,0.00,763,weatherlink.com 1.10,2013-05-30 15:50:00,
2013-05-30 12:05:00,82.7,74.0,30.02,ENE,72,2.0,10.0,74,0.00,,,0.00,464,weatherlink.com 1.10,2013-05-30 16:05:00,
2013-05-30 12:20:00,82.5,74.0,30.02,East,86,2.0,10.0,75,0.00,,,0.00,566,weatherlink.com 1.10,2013-05-30 16:20:00,
2013-05-30 12:35:00,82.7,74.0,30.02,East,96,3.0,11.0,74,0.00,,,0.00,478,weatherlink.com 1.10,2013-05-30 16:35:00,
2013-05-30 12:50:00,82.6,74.0,30.02,East,86,5.0,10.0,74,0.00,,,0.00,684,weatherlink.com 1.10,2013-05-30 16:50:00,
2013-05-30 13:05:00,82.9,74.0,30.01,SE,132,0.0,10.0,74,0.00,,,0.00,427,weatherlink.com 1.10,2013-05-30 17:05:00,
2013-05-30 13:20:00,84.1,76.0,30.01,East,101,0.0,7.0,76,0.00,,,0.00,670,weatherlink.com 1.10,2013-05-30 17:20:00,
2013-05-30 13:35:00,84.4,74.0,30.01,East,100,8.0,11.0,72,0.00,,,0.00,1062,weatherlink.com 1.10,2013-05-30 17:35:00,
2013-05-30 13:50:00,82.9,74.0,30.00,East,92,6.0,11.0,74,0.00,,,0.00,360,weatherlink.com 1.10,2013-05-30 17:50:00,
2013-05-30 14:05:00,82.6,74.0,29.99,ENE,65,3.0,9.0,76,0.00,,,0.00,376,weatherlink.com 1.10,2013-05-30 18:05:00,
2013-05-30 14:20:00,82.1,74.0,29.99,ESE,109,3.0,15.0,76,0.00,,,0.00,490,weatherlink.com 1.10,2013-05-30 18:20:00,
2013-05-30 14:35:00,80.9,74.0,29.98,East,101,2.0,11.0,79,0.00,,,0.00,373,weatherlink.com 1.10,2013-05-30 18:35:00,
2013-05-30 14:50:00,82.7,75.0,29.97,ESE,103,2.0,10.0,78,0.00,,,0.00,352,weatherlink.com 1.10,2013-05-30 18:50:00,
2013-05-30 15:05:00,80.9,74.0,29.97,SE,126,2.0,16.0,80,0.00,,,0.00,236,weatherlink.com 1.10,2013-05-30 19:05:00,
2013-05-30 15:20:00,81.3,75.0,29.97,ESE,103,2.0,6.0,81,0.00,,,0.00,221,weatherlink.com 1.10,2013-05-30 19:20:00,
2013-05-30 15:35:00,80.9,75.0,29.96,NE,47,5.0,10.0,81,0.00,,,0.00,220,weatherlink.com 1.10,2013-05-30 19:35:00,
2013-05-30 15:50:00,80.9,74.0,29.96,ESE,109,3.0,9.0,80,0.00,,,0.00,285,weatherlink.com 1.10,2013-05-30 19:50:00,
2013-05-30 16:05:00,82.5,75.0,29.96,South,186,2.0,13.0,77,0.00,,,0.00,680,weatherlink.com 1.10,2013-05-30 20:05:00,
2013-05-30 16:20:00,83.0,75.0,29.96,ENE,77,0.0,9.0,76,0.00,,,0.00,575,weatherlink.com 1.10,2013-05-30 20:20:00,
2013-05-30 16:35:00,82.6,74.0,29.96,SE,134,1.0,13.0,75,0.00,,,0.00,436,weatherlink.com 1.10,2013-05-30 20:35:00,
2013-05-30 16:50:00,81.8,73.0,29.95,SSE,159,5.0,11.0,74,0.00,,,0.00,100,weatherlink.com 1.10,2013-05-30 20:50:00,
2013-05-30 17:05:00,81.0,73.0,29.95,East,82,1.0,13.0,77,0.00,,,0.00,306,weatherlink.com 1.10,2013-05-30 21:05:00,
2013-05-30 17:20:00,81.5,73.0,29.95,SE,140,3.0,12.0,75,0.00,,,0.00,287,weatherlink.com 1.10,2013-05-30 21:20:00,
2013-05-30 17:35:00,81.3,73.0,29.96,East,88,7.0,12.0,77,0.00,,,0.00,230,weatherlink.com 1.10,2013-05-30 21:35:00,
2013-05-30 17:50:00,81.4,74.0,29.95,ENE,78,2.0,8.0,78,0.00,,,0.00,116,weatherlink.com 1.10,2013-05-30 21:50:00,
2013-05-30 18:05:00,80.3,73.0,29.96,SSW,212,4.0,7.0,79,0.00,,,0.00,54,weatherlink.com 1.10,2013-05-30 22:05:00,
2013-05-30 18:20:00,79.5,74.0,29.97,ENE,76,0.0,7.0,82,0.00,,,0.00,49,weatherlink.com 1.10,2013-05-30 22:20:00,
2013-05-30 18:35:00,79.1,74.0,29.97,East,96,1.0,7.0,83,0.00,,,0.00,19,weatherlink.com 1.10,2013-05-30 22:35:00,
2013-05-30 18:50:00,78.5,74.0,29.96,SE,133,0.0,9.0,85,0.00,,,0.00,5,weatherlink.com 1.10,2013-05-30 22:50:00,
2013-05-30 19:05:00,78.0,73.0,29.97,ESE,122,10.0,14.0,85,0.00,,,0.00,0,weatherlink.com 1.10,2013-05-30 23:05:00,
2013-05-30 19:20:00,77.7,74.0,29.98,ESE,110,2.0,10.0,87,0.00,,,0.00,0,weatherlink.com 1.10,2013-05-30 23:20:00,
2013-05-30 19:35:00,77.5,73.0,29.99,SSE,162,1.0,9.0,87,0.00,,,0.00,0,weatherlink.com 1.10,2013-05-30 23:35:00,
2013-05-30 19:50:00,77.3,73.0,29.99,ESE,117,3.0,9.0,87,0.00,,,0.00,0,weatherlink.com 1.10,2013-05-30 23:50:00,
2013-05-30 20:05:00,77.3,73.0,30.00,ENE,68,3.0,7.0,87,0.00,,,0.00,0,weatherlink.com 1.10,2013-05-31 00:05:00,
2013-05-30 20:20:00,77.3,74.0,30.00,ESE,115,4.0,7.0,88,0.00,,,0.00,0,weatherlink.com 1.10,2013-05-31 00:20:00,
2013-05-30 20:35:00,77.1,73.0,30.00,East,84,2.0,8.0,88,0.00,,,0.00,0,weatherlink.com 1.10,2013-05-31 00:35:00,
2013-05-30 20:50:00,76.9,73.0,30.00,East,86,1.0,8.0,88,0.00,,,0.00,0,weatherlink.com 1.10,2013-05-31 00:50:00,
2013-05-30 21:05:00,76.9,74.0,30.00,ENE,76,2.0,7.0,89,0.00,,,0.00,0,weatherlink.com 1.10,2013-05-31 01:05:00,
2013-05-30 21:20:00,76.7,73.0,30.01,ESE,109,2.0,8.0,89,0.00,,,0.00,0,weatherlink.com 1.10,2013-05-31 01:20:00,
2013-05-30 21:35:00,76.7,73.0,30.02,East,82,2.0,5.0,88,0.00,,,0.00,0,weatherlink.com 1.10,2013-05-31 01:35:00,
2013-05-30 21:50:00,76.6,73.0,30.02,East,90,3.0,6.0,89,0.00,,,0.00,0,weatherlink.com 1.10,2013-05-31 01:50:00,
2013-05-30 22:05:00,76.4,73.0,30.03,East,84,3.0,8.0,89,0.00,,,0.00,0,weatherlink.com 1.10,2013-05-31 02:05:00,
2013-05-30 22:20:00,76.2,73.0,30.02,ESE,114,7.0,8.0,88,0.00,,,0.00,0,weatherlink.com 1.10,2013-05-31 02:20:00,
2013-05-30 22:35:00,75.9,72.0,30.02,ESE,107,2.0,5.0,88,0.00,,,0.00,0,weatherlink.com 1.10,2013-05-31 02:35:00,
2013-05-30 22:50:00,75.7,72.0,30.02,SSE,158,0.0,8.0,88,0.00,,,0.00,0,weatherlink.com 1.10,2013-05-31 02:50:00,
2013-05-30 23:05:00,75.6,72.0,30.04,ESE,108,0.0,7.0,87,0.00,,,0.00,0,weatherlink.com 1.10,2013-05-31 03:05:00,
2013-05-30 23:20:00,75.8,72.0,30.04,ESE,111,4.0,7.0,88,0.00,,,0.00,0,weatherlink.com 1.10,2013-05-31 03:20:00,
2013-05-30 23:35:00,75.8,72.0,30.03,ESE,103,2.0,7.0,88,0.00,,,0.00,0,weatherlink.com 1.10,2013-05-31 03:35:00,
2013-05-30 23:50:00,75.6,72.0,30.02,East,88,0.0,8.0,89,0.00,,,0.00,0,weatherlink.com 1.10,2013-05-31 03:50:00,